Avalon Express — WDD7919 — position and weather

sailwx.info

Track history (hours):
 
Tides and Currents Weather Stations Pressure Air Temp Water Temp Dewpoint Dewpoint Depression Visibility Wind Speed Wind Dir Waves Ship Positions

Avalon Express

Owner: RGWT INC, San Pedro, CA. More information available from US FCC via Universal Licensing System and Coast Guard Vessel Documentation Center.

Last reported at 2016-Jul-02 02:30 UTC. Time now 2016-Jul-02 04:01 UTC.
Position N 33°25' W 118°18'.

Type: High speed craft. MMSI: 367192940.

Date/timePositionNaut miles runAvg speedWind from/ knotsBaromVisibWave heightAir tempDewpointWater temp
2016-Jul-02 02:30N 33°25' W 118°18'0 0.2
2016-Jul-02 01:32N 33°25' W 118°18'4 1.1
2016-Jul-01 21:26N 33°21' W 118°19'0 0.0
2016-Jul-01 17:14N 33°21' W 118°19'1624.3
2016-Jul-01 16:33N 33°37' W 118°16'8 0.5
2016-Jul-01 02:31N 33°45' W 118°16'1310.1
2016-Jul-01 01:14N 33°32' W 118°17'1112.4
2016-Jul-01 00:19N 33°21' W 118°19'2312.5
2016-Jun-30 22:31N 33°43' W 118°16'2 1.8
2016-Jun-30 21:33N 33°45' W 118°16'2 2.3
2016-Jun-30 20:34N 33°43' W 118°15'12 5.9
2016-Jun-30 18:34N 33°31' W 118°17'1412.7
2016-Jun-30 17:28N 33°45' W 118°16'0 0.0
2016-Jun-30 14:33N 33°45' W 118°16'0 0.0
2016-Jun-30 03:33N 33°45' W 118°16'0 0.0
2016-Jun-30 02:33N 33°45' W 118°16'6 5.7
2016-Jun-30 01:33N 33°39' W 118°15'1918.9
2016-Jun-30 00:33N 33°21' W 118°19'10 8.1
2016-Jun-29 23:17N 33°27' W 118°29'1925.7
2016-Jun-29 22:33N 33°42' W 118°15'3 3.2
2016-Jun-29 21:33N 33°45' W 118°16'2 1.6
2016-Jun-29 20:33N 33°43' W 118°16'2322.6
2016-Jun-29 19:33N 33°21' W 118°19'8 8.6
2016-Jun-29 18:33N 33°29' W 118°18'1615.9
2016-Jun-29 17:33N 33°45' W 118°16'0 0.1
2016-Jun-29 16:33N 33°45' W 118°16'0 0.0
2016-Jun-29 15:30N 33°45' W 118°16'0 0.0
2016-Jun-29 03:30N 33°45' W 118°16'0 0.1
2016-Jun-29 02:33N 33°45' W 118°16'6 6.0
2016-Jun-29 01:34N 33°39' W 118°14'1915.8
2016-Jun-29 00:22N 33°21' W 118°19'1110.3
2016-Jun-28 23:20N 33°27' W 118°30'2025.4
2016-Jun-28 22:34N 33°42' W 118°15'3 2.8
2016-Jun-28 21:33N 33°45' W 118°16'2 1.7
2016-Jun-28 20:34N 33°43' W 118°16'2322.7
2016-Jun-28 19:33N 33°21' W 118°19'1010.5
2016-Jun-28 18:34N 33°31' W 118°17'1413.9
2016-Jun-28 17:33N 33°45' W 118°16'0 0.1
2016-Jun-28 16:33N 33°45' W 118°16'0 0.0
2016-Jun-28 15:33N 33°45' W 118°16'0 0.1
2016-Jun-28 14:33N 33°45' W 118°16'0 0.0
2016-Jun-27 06:09N 33°45' W 118°16'0 0.2
2016-Jun-27 05:33N 33°45' W 118°16'1412.7
2016-Jun-27 04:28N 33°31' W 118°17'1010.4
2016-Jun-27 03:29N 33°21' W 118°19'1921.0
2016-Jun-27 02:33N 33°40' W 118°15'5 5.0
2016-Jun-27 01:33N 33°45' W 118°16'1 1.4
2016-Jun-27 00:33N 33°43' W 118°16'18 8.8
2016-Jun-26 22:33N 33°26' W 118°18'1918.9
2016-Jun-26 21:33N 33°45' W 118°16'0 0.0
2016-Jun-26 20:33N 33°45' W 118°16'1 1.1
2016-Jun-26 19:33N 33°44' W 118°16'18 9.1
2016-Jun-26 17:34N 33°26' W 118°20'1918.7
2016-Jun-26 16:33N 33°45' W 118°17'0 0.4
2016-Jun-26 15:33N 33°45' W 118°16'0 0.1
2016-Jun-26 14:33N 33°45' W 118°16'0 0.1
2016-Jun-26 13:33N 33°45' W 118°16'0 0.0
2016-Jun-26 12:33N 33°45' W 118°16'0 0.0
2016-Jun-25 20:26N 33°45' W 118°16'1 1.4
2016-Jun-25 19:34N 33°44' W 118°16'18 8.5
2016-Jun-25 17:27N 33°26' W 118°18'1920.3
2016-Jun-25 16:33N 33°45' W 118°17'0 0.4
2016-Jun-25 15:33N 33°45' W 118°16'0 0.0
2016-Jun-25 14:33N 33°45' W 118°16'0 0.0
2016-Jun-25 13:28N 33°45' W 118°16'0 0.0
2016-Jun-25 12:33N 33°45' W 118°16'0 0.0
2016-Jun-25 04:33N 33°45' W 118°16'0 0.0
2016-Jun-25 03:33N 33°45' W 118°16'1818.1
2016-Jun-25 02:33N 33°27' W 118°18'2 1.9
2016-Jun-25 01:34N 33°25' W 118°19'1919.3
2016-Jun-25 00:33N 33°45' W 118°17'0 0.4
2016-Jun-24 23:33N 33°45' W 118°16'1211.4
2016-Jun-24 22:32N 33°33' W 118°16'1313.3
2016-Jun-24 21:33N 33°21' W 118°19'2222.4
2016-Jun-24 20:33N 33°43' W 118°16'2 2.0
2016-Jun-24 19:33N 33°45' W 118°16'5 4.9
2016-Jun-24 18:31N 33°40' W 118°15'2015.3
2016-Jun-24 17:14N 33°21' W 118°19'1824.0
2016-Jun-24 16:28N 33°39' W 118°16'6 6.5
2016-Jun-24 15:33N 33°45' W 118°16'0 0.0
2016-Jun-24 14:30N 33°45' W 118°16'0 0.0
2016-Jun-24 13:33N 33°45' W 118°16'0 0.0
2016-Jun-24 12:32N 33°45' W 118°16'0 0.0
2016-Jun-24 04:33N 33°45' W 118°16'1918.8
2016-Jun-24 03:31N 33°25' W 118°18'5 5.1
2016-Jun-24 02:33N 33°21' W 118°19'2222.1
2016-Jun-24 01:34N 33°42' W 118°15'3 3.0
2016-Jun-24 00:33N 33°45' W 118°16'5 5.4
2016-Jun-23 23:34N 33°40' W 118°14'2016.3
2016-Jun-23 22:22N 33°21' W 118°19'10 9.7
2016-Jun-23 21:20N 33°27' W 118°28'1923.6
2016-Jun-23 20:32N 33°43' W 118°16'2 2.1
2016-Jun-23 19:33N 33°45' W 118°16'2 1.5
2016-Jun-23 18:28N 33°43' W 118°16'2310.8
2016-Jun-23 16:22N 33°21' W 118°19'1721.1
2016-Jun-23 15:33N 33°37' W 118°16'8 7.5
2016-Jun-23 14:33N 33°45' W 118°16'0 0.0
2016-Jun-23 13:33N 33°45' W 118°16'0 0.0
2016-Jun-23 12:33N 33°45' W 118°16'0 0.0
2016-Jun-23 05:33N 33°45' W 118°16'0 0.0
2016-Jun-23 04:33N 33°45' W 118°16'1817.7
2016-Jun-23 03:31N 33°27' W 118°18'5 4.7
2016-Jun-23 02:22N 33°21' W 118°19'2125.8
2016-Jun-23 01:33N 33°42' W 118°15'3 3.4
2016-Jun-23 00:33N 33°45' W 118°16'4 4.2
2016-Jun-22 23:34N 33°41' W 118°14'2117.6
2016-Jun-22 22:23N 33°21' W 118°19'1111.0
2016-Jun-22 21:25N 33°27' W 118°30'2023.2
2016-Jun-22 20:33N 33°43' W 118°16'2 2.1
2016-Jun-22 19:33N 33°45' W 118°16'1 0.9
2016-Jun-22 18:33N 33°44' W 118°17'0 0.0
2016-Jun-22 04:24N 33°44' W 118°17'1720.1
2016-Jun-22 03:33N 33°27' W 118°18'  
Track history (hours):
 
Tides and Currents Weather Stations Pressure Air Temp Water Temp Dewpoint Dewpoint Depression Visibility Wind Speed Wind Dir Waves Ship Positions

Avalon Express

Owner: RGWT INC, San Pedro, CA. More information available from US FCC via Universal Licensing System and Coast Guard Vessel Documentation Center.

Last reported at 2016-Jul-02 02:30 UTC. Time now 2016-Jul-02 04:01 UTC.
Position N 33°25' W 118°18'.

Type: High speed craft. MMSI: 367192940.

Date/timePositionNaut miles runAvg speedWind from/ knotsBaromVisibWave heightAir tempDewpointWater temp
2016-Jul-02 02:30N 33°25' W 118°18'0 0.2
2016-Jul-02 01:32N 33°25' W 118°18'4 1.1
2016-Jul-01 21:26N 33°21' W 118°19'0 0.0
2016-Jul-01 17:14N 33°21' W 118°19'1624.3
2016-Jul-01 16:33N 33°37' W 118°16'8 0.5
2016-Jul-01 02:31N 33°45' W 118°16'1310.1
2016-Jul-01 01:14N 33°32' W 118°17'1112.4
2016-Jul-01 00:19N 33°21' W 118°19'2312.5
2016-Jun-30 22:31N 33°43' W 118°16'2 1.8
2016-Jun-30 21:33N 33°45' W 118°16'2 2.3
2016-Jun-30 20:34N 33°43' W 118°15'12 5.9
2016-Jun-30 18:34N 33°31' W 118°17'1412.7
2016-Jun-30 17:28N 33°45' W 118°16'0 0.0
2016-Jun-30 14:33N 33°45' W 118°16'0 0.0
2016-Jun-30 03:33N 33°45' W 118°16'0 0.0
2016-Jun-30 02:33N 33°45' W 118°16'6 5.7
2016-Jun-30 01:33N 33°39' W 118°15'1918.9
2016-Jun-30 00:33N 33°21' W 118°19'10 8.1
2016-Jun-29 23:17N 33°27' W 118°29'1925.7
2016-Jun-29 22:33N 33°42' W 118°15'3 3.2
2016-Jun-29 21:33N 33°45' W 118°16'2 1.6
2016-Jun-29 20:33N 33°43' W 118°16'2322.6
2016-Jun-29 19:33N 33°21' W 118°19'8 8.6
2016-Jun-29 18:33N 33°29' W 118°18'1615.9
2016-Jun-29 17:33N 33°45' W 118°16'0 0.1
2016-Jun-29 16:33N 33°45' W 118°16'0 0.0
2016-Jun-29 15:30N 33°45' W 118°16'0 0.0
2016-Jun-29 03:30N 33°45' W 118°16'0 0.1
2016-Jun-29 02:33N 33°45' W 118°16'6 6.0
2016-Jun-29 01:34N 33°39' W 118°14'1915.8
2016-Jun-29 00:22N 33°21' W 118°19'1110.3
2016-Jun-28 23:20N 33°27' W 118°30'2025.4
2016-Jun-28 22:34N 33°42' W 118°15'3 2.8
2016-Jun-28 21:33N 33°45' W 118°16'2 1.7
2016-Jun-28 20:34N 33°43' W 118°16'2322.7
2016-Jun-28 19:33N 33°21' W 118°19'1010.5
2016-Jun-28 18:34N 33°31' W 118°17'1413.9
2016-Jun-28 17:33N 33°45' W 118°16'0 0.1
2016-Jun-28 16:33N 33°45' W 118°16'0 0.0
2016-Jun-28 15:33N 33°45' W 118°16'0 0.1
2016-Jun-28 14:33N 33°45' W 118°16'0 0.0
2016-Jun-27 06:09N 33°45' W 118°16'0 0.2
2016-Jun-27 05:33N 33°45' W 118°16'1412.7
2016-Jun-27 04:28N 33°31' W 118°17'1010.4
2016-Jun-27 03:29N 33°21' W 118°19'1921.0
2016-Jun-27 02:33N 33°40' W 118°15'5 5.0
2016-Jun-27 01:33N 33°45' W 118°16'1 1.4
2016-Jun-27 00:33N 33°43' W 118°16'18 8.8
2016-Jun-26 22:33N 33°26' W 118°18'1918.9
2016-Jun-26 21:33N 33°45' W 118°16'0 0.0
2016-Jun-26 20:33N 33°45' W 118°16'1 1.1
2016-Jun-26 19:33N 33°44' W 118°16'18 9.1
2016-Jun-26 17:34N 33°26' W 118°20'1918.7
2016-Jun-26 16:33N 33°45' W 118°17'0 0.4
2016-Jun-26 15:33N 33°45' W 118°16'0 0.1
2016-Jun-26 14:33N 33°45' W 118°16'0 0.1
2016-Jun-26 13:33N 33°45' W 118°16'0 0.0
2016-Jun-26 12:33N 33°45' W 118°16'0 0.0
2016-Jun-25 20:26N 33°45' W 118°16'1 1.4
2016-Jun-25 19:34N 33°44' W 118°16'18 8.5
2016-Jun-25 17:27N 33°26' W 118°18'1920.3
2016-Jun-25 16:33N 33°45' W 118°17'0 0.4
2016-Jun-25 15:33N 33°45' W 118°16'0 0.0
2016-Jun-25 14:33N 33°45' W 118°16'0 0.0
2016-Jun-25 13:28N 33°45' W 118°16'0 0.0
2016-Jun-25 12:33N 33°45' W 118°16'0 0.0
2016-Jun-25 04:33N 33°45' W 118°16'0 0.0
2016-Jun-25 03:33N 33°45' W 118°16'1818.1
2016-Jun-25 02:33N 33°27' W 118°18'2 1.9
2016-Jun-25 01:34N 33°25' W 118°19'1919.3
2016-Jun-25 00:33N 33°45' W 118°17'0 0.4
2016-Jun-24 23:33N 33°45' W 118°16'1211.4
2016-Jun-24 22:32N 33°33' W 118°16'1313.3
2016-Jun-24 21:33N 33°21' W 118°19'2222.4
2016-Jun-24 20:33N 33°43' W 118°16'2 2.0
2016-Jun-24 19:33N 33°45' W 118°16'5 4.9
2016-Jun-24 18:31N 33°40' W 118°15'2015.3
2016-Jun-24 17:14N 33°21' W 118°19'1824.0
2016-Jun-24 16:28N 33°39' W 118°16'6 6.5
2016-Jun-24 15:33N 33°45' W 118°16'0 0.0
2016-Jun-24 14:30N 33°45' W 118°16'0 0.0
2016-Jun-24 13:33N 33°45' W 118°16'0 0.0
2016-Jun-24 12:32N 33°45' W 118°16'0 0.0
2016-Jun-24 04:33N 33°45' W 118°16'1918.8
2016-Jun-24 03:31N 33°25' W 118°18'5 5.1
2016-Jun-24 02:33N 33°21' W 118°19'2222.1
2016-Jun-24 01:34N 33°42' W 118°15'3 3.0
2016-Jun-24 00:33N 33°45' W 118°16'5 5.4
2016-Jun-23 23:34N 33°40' W 118°14'2016.3
2016-Jun-23 22:22N 33°21' W 118°19'10 9.7
2016-Jun-23 21:20N 33°27' W 118°28'1923.6
2016-Jun-23 20:32N 33°43' W 118°16'2 2.1
2016-Jun-23 19:33N 33°45' W 118°16'2 1.5
2016-Jun-23 18:28N 33°43' W 118°16'2310.8
2016-Jun-23 16:22N 33°21' W 118°19'1721.1
2016-Jun-23 15:33N 33°37' W 118°16'8 7.5
2016-Jun-23 14:33N 33°45' W 118°16'0 0.0
2016-Jun-23 13:33N 33°45' W 118°16'0 0.0
2016-Jun-23 12:33N 33°45' W 118°16'0 0.0
2016-Jun-23 05:33N 33°45' W 118°16'0 0.0
2016-Jun-23 04:33N 33°45' W 118°16'1817.7
2016-Jun-23 03:31N 33°27' W 118°18'5 4.7
2016-Jun-23 02:22N 33°21' W 118°19'2125.8
2016-Jun-23 01:33N 33°42' W 118°15'3 3.4
2016-Jun-23 00:33N 33°45' W 118°16'4 4.2
2016-Jun-22 23:34N 33°41' W 118°14'2117.6
2016-Jun-22 22:23N 33°21' W 118°19'1111.0
2016-Jun-22 21:25N 33°27' W 118°30'2023.2
2016-Jun-22 20:33N 33°43' W 118°16'2 2.1
2016-Jun-22 19:33N 33°45' W 118°16'1 0.9
2016-Jun-22 18:33N 33°44' W 118°17'0 0.0
2016-Jun-22 04:24N 33°44' W 118°17'1720.1
2016-Jun-22 03:33N 33°27' W 118°18'  

Dump ship's entire track history